sensor_id;sensor_type;location;lat;lon;timestamp;P1;durP1;ratioP1;P2;durP2;ratioP2
52031;SDS011;38044;45.148;39.604;2024-03-07T00:02:19;31.05;;;16.55;;
52031;SDS011;38044;45.148;39.604;2024-03-07T00:04:45;24.98;;;15.77;;
52031;SDS011;38044;45.148;39.604;2024-03-07T00:07:11;28.95;;;15.90;;
52031;SDS011;38044;45.148;39.604;2024-03-07T00:09:37;25.95;;;15.63;;
52031;SDS011;38044;45.148;39.604;2024-03-07T00:12:03;19.88;;;11.63;;
52031;SDS011;38044;45.148;39.604;2024-03-07T00:14:33;26.40;;;11.27;;
52031;SDS011;38044;45.148;39.604;2024-03-07T00:17:00;25.23;;;11.48;;
52031;SDS011;38044;45.148;39.604;2024-03-07T00:19:28;15.60;;;10.02;;
52031;SDS011;38044;45.148;39.604;2024-03-07T00:21:55;18.52;;;10.23;;
52031;SDS011;38044;45.148;39.604;2024-03-07T00:24:21;16.15;;;9.60;;
52031;SDS011;38044;45.148;39.604;2024-03-07T00:26:52;15.27;;;9.25;;
52031;SDS011;38044;45.148;39.604;2024-03-07T00:29:18;19.08;;;9.40;;
52031;SDS011;38044;45.148;39.604;2024-03-07T00:31:47;16.88;;;9.70;;
52031;SDS011;38044;45.148;39.604;2024-03-07T00:34:13;15.70;;;8.93;;
52031;SDS011;38044;45.148;39.604;2024-03-07T00:36:42;15.27;;;8.93;;
52031;SDS011;38044;45.148;39.604;2024-03-07T00:39:08;19.17;;;9.07;;
52031;SDS011;38044;45.148;39.604;2024-03-07T00:41:38;13.88;;;8.15;;
52031;SDS011;38044;45.148;39.604;2024-03-07T00:44:04;15.65;;;8.50;;
52031;SDS011;38044;45.148;39.604;2024-03-07T00:46:31;12.15;;;8.60;;
52031;SDS011;38044;45.148;39.604;2024-03-07T00:48:57;14.77;;;7.85;;
52031;SDS011;38044;45.148;39.604;2024-03-07T00:51:23;20.30;;;8.95;;
52031;SDS011;38044;45.148;39.604;2024-03-07T00:53:49;14.05;;;7.55;;
52031;SDS011;38044;45.148;39.604;2024-03-07T00:56:15;18.50;;;9.00;;
52031;SDS011;38044;45.148;39.604;2024-03-07T00:58:41;11.30;;;7.53;;
52031;SDS011;38044;45.148;39.604;2024-03-07T01:01:06;12.82;;;8.52;;
52031;SDS011;38044;45.148;39.604;2024-03-07T01:03:32;13.00;;;8.00;;
52031;SDS011;38044;45.148;39.604;2024-03-07T01:05:58;14.88;;;7.60;;
52031;SDS011;38044;45.148;39.604;2024-03-07T01:08:24;13.90;;;7.90;;
52031;SDS011;38044;45.148;39.604;2024-03-07T01:10:50;13.02;;;7.82;;
52031;SDS011;38044;45.148;39.604;2024-03-07T01:13:16;15.88;;;7.63;;
52031;SDS011;38044;45.148;39.604;2024-03-07T01:15:45;13.38;;;7.65;;
52031;SDS011;38044;45.148;39.604;2024-03-07T01:18:11;16.30;;;7.65;;
52031;SDS011;38044;45.148;39.604;2024-03-07T01:20:38;14.27;;;8.55;;
52031;SDS011;38044;45.148;39.604;2024-03-07T01:23:04;13.30;;;7.88;;
52031;SDS011;38044;45.148;39.604;2024-03-07T01:25:29;15.90;;;8.20;;
52031;SDS011;38044;45.148;39.604;2024-03-07T01:28:01;15.57;;;7.75;;
52031;SDS011;38044;45.148;39.604;2024-03-07T01:30:29;11.88;;;7.32;;
52031;SDS011;38044;45.148;39.604;2024-03-07T01:32:55;15.38;;;8.23;;
52031;SDS011;38044;45.148;39.604;2024-03-07T01:35:21;16.63;;;8.32;;
52031;SDS011;38044;45.148;39.604;2024-03-07T01:37:46;10.95;;;7.53;;
52031;SDS011;38044;45.148;39.604;2024-03-07T01:40:12;17.23;;;8.25;;
52031;SDS011;38044;45.148;39.604;2024-03-07T01:42:39;10.32;;;7.28;;
52031;SDS011;38044;45.148;39.604;2024-03-07T01:45:06;11.98;;;6.97;;
52031;SDS011;38044;45.148;39.604;2024-03-07T01:47:35;10.68;;;6.75;;
52031;SDS011;38044;45.148;39.604;2024-03-07T01:50:04;16.50;;;6.50;;
52031;SDS011;38044;45.148;39.604;2024-03-07T01:52:30;15.27;;;7.47;;
52031;SDS011;38044;45.148;39.604;2024-03-07T01:54:56;13.25;;;7.30;;
52031;SDS011;38044;45.148;39.604;2024-03-07T01:57:22;11.35;;;7.07;;
52031;SDS011;38044;45.148;39.604;2024-03-07T01:59:48;11.75;;;6.65;;
52031;SDS011;38044;45.148;39.604;2024-03-07T02:02:16;15.93;;;7.45;;
52031;SDS011;38044;45.148;39.604;2024-03-07T02:04:43;12.38;;;6.93;;
52031;SDS011;38044;45.148;39.604;2024-03-07T02:07:09;12.27;;;7.03;;
52031;SDS011;38044;45.148;39.604;2024-03-07T02:09:38;11.70;;;7.05;;
52031;SDS011;38044;45.148;39.604;2024-03-07T02:12:04;12.18;;;6.50;;
52031;SDS011;38044;45.148;39.604;2024-03-07T02:14:30;10.63;;;6.40;;
52031;SDS011;38044;45.148;39.604;2024-03-07T02:16:56;14.27;;;6.72;;
52031;SDS011;38044;45.148;39.604;2024-03-07T02:19:22;13.00;;;6.53;;
52031;SDS011;38044;45.148;39.604;2024-03-07T02:21:48;9.55;;;6.45;;
52031;SDS011;38044;45.148;39.604;2024-03-07T02:24:14;14.30;;;7.07;;
52031;SDS011;38044;45.148;39.604;2024-03-07T02:26:41;13.05;;;6.57;;
52031;SDS011;38044;45.148;39.604;2024-03-07T02:29:06;9.75;;;6.03;;
52031;SDS011;38044;45.148;39.604;2024-03-07T02:31:32;15.18;;;6.57;;
52031;SDS011;38044;45.148;39.604;2024-03-07T02:34:05;11.27;;;6.50;;
52031;SDS011;38044;45.148;39.604;2024-03-07T02:36:33;10.65;;;7.13;;
52031;SDS011;38044;45.148;39.604;2024-03-07T02:38:59;9.50;;;6.20;;
52031;SDS011;38044;45.148;39.604;2024-03-07T02:41:25;11.02;;;6.60;;
52031;SDS011;38044;45.148;39.604;2024-03-07T02:43:51;12.50;;;7.10;;
52031;SDS011;38044;45.148;39.604;2024-03-07T02:46:18;11.90;;;6.38;;
52031;SDS011;38044;45.148;39.604;2024-03-07T02:48:45;13.88;;;6.60;;
52031;SDS011;38044;45.148;39.604;2024-03-07T02:51:11;13.95;;;6.55;;
52031;SDS011;38044;45.148;39.604;2024-03-07T02:53:37;13.68;;;6.70;;
52031;SDS011;38044;45.148;39.604;2024-03-07T02:56:05;13.63;;;7.45;;
52031;SDS011;38044;45.148;39.604;2024-03-07T02:58:34;11.63;;;6.45;;
52031;SDS011;38044;45.148;39.604;2024-03-07T03:01:00;8.77;;;6.70;;
52031;SDS011;38044;45.148;39.604;2024-03-07T03:03:26;12.75;;;7.20;;
52031;SDS011;38044;45.148;39.604;2024-03-07T03:05:52;12.65;;;6.43;;
52031;SDS011;38044;45.148;39.604;2024-03-07T03:08:18;15.13;;;7.05;;
52031;SDS011;38044;45.148;39.604;2024-03-07T03:10:44;14.82;;;7.05;;
52031;SDS011;38044;45.148;39.604;2024-03-07T03:13:10;14.75;;;7.25;;
52031;SDS011;38044;45.148;39.604;2024-03-07T03:15:36;9.85;;;6.25;;
52031;SDS011;38044;45.148;39.604;2024-03-07T03:18:04;14.25;;;6.97;;
52031;SDS011;38044;45.148;39.604;2024-03-07T03:20:30;12.73;;;7.40;;
52031;SDS011;38044;45.148;39.604;2024-03-07T03:22:59;10.27;;;6.47;;
52031;SDS011;38044;45.148;39.604;2024-03-07T03:25:28;13.73;;;7.20;;
52031;SDS011;38044;45.148;39.604;2024-03-07T03:27:54;10.07;;;6.20;;
52031;SDS011;38044;45.148;39.604;2024-03-07T03:30:20;13.52;;;7.30;;
52031;SDS011;38044;45.148;39.604;2024-03-07T03:32:49;12.02;;;7.82;;
52031;SDS011;38044;45.148;39.604;2024-03-07T03:35:15;10.18;;;6.22;;
52031;SDS011;38044;45.148;39.604;2024-03-07T03:37:45;12.65;;;7.35;;
52031;SDS011;38044;45.148;39.604;2024-03-07T03:40:11;13.43;;;7.45;;
52031;SDS011;38044;45.148;39.604;2024-03-07T03:42:46;12.13;;;7.13;;
52031;SDS011;38044;45.148;39.604;2024-03-07T03:45:15;12.95;;;6.75;;
52031;SDS011;38044;45.148;39.604;2024-03-07T03:47:47;15.90;;;7.75;;
52031;SDS011;38044;45.148;39.604;2024-03-07T03:50:17;13.73;;;6.88;;
52031;SDS011;38044;45.148;39.604;2024-03-07T03:52:48;12.35;;;7.03;;
52031;SDS011;38044;45.148;39.604;2024-03-07T03:55:14;14.13;;;7.55;;
52031;SDS011;38044;45.148;39.604;2024-03-07T03:57:40;13.02;;;7.57;;
52031;SDS011;38044;45.148;39.604;2024-03-07T04:00:09;14.90;;;7.68;;
52031;SDS011;38044;45.148;39.604;2024-03-07T04:02:42;16.50;;;7.38;;
52031;SDS011;38044;45.148;39.604;2024-03-07T04:05:10;13.15;;;7.80;;
52031;SDS011;38044;45.148;39.604;2024-03-07T04:07:38;12.45;;;8.18;;
52031;SDS011;38044;45.148;39.604;2024-03-07T04:10:05;16.38;;;8.27;;
52031;SDS011;38044;45.148;39.604;2024-03-07T04:12:34;15.82;;;8.65;;
52031;SDS011;38044;45.148;39.604;2024-03-07T04:15:05;15.02;;;7.55;;
52031;SDS011;38044;45.148;39.604;2024-03-07T04:17:35;16.20;;;8.32;;
52031;SDS011;38044;45.148;39.604;2024-03-07T04:20:02;17.55;;;9.35;;
52031;SDS011;38044;45.148;39.604;2024-03-07T04:22:32;17.27;;;8.55;;
52031;SDS011;38044;45.148;39.604;2024-03-07T04:24:59;14.00;;;8.80;;
52031;SDS011;38044;45.148;39.604;2024-03-07T04:27:26;18.05;;;8.57;;
52031;SDS011;38044;45.148;39.604;2024-03-07T04:29:52;16.90;;;8.68;;
52031;SDS011;38044;45.148;39.604;2024-03-07T04:32:18;14.93;;;8.65;;
52031;SDS011;38044;45.148;39.604;2024-03-07T04:34:44;12.15;;;8.35;;
52031;SDS011;38044;45.148;39.604;2024-03-07T04:37:10;14.15;;;8.20;;
52031;SDS011;38044;45.148;39.604;2024-03-07T04:39:38;15.32;;;8.40;;
52031;SDS011;38044;45.148;39.604;2024-03-07T04:42:04;18.38;;;8.77;;
52031;SDS011;38044;45.148;39.604;2024-03-07T04:44:32;16.73;;;8.65;;
52031;SDS011;38044;45.148;39.604;2024-03-07T04:47:00;14.18;;;8.40;;
52031;SDS011;38044;45.148;39.604;2024-03-07T04:49:27;15.95;;;8.82;;
52031;SDS011;38044;45.148;39.604;2024-03-07T04:51:55;16.17;;;8.73;;
52031;SDS011;38044;45.148;39.604;2024-03-07T04:54:22;18.25;;;8.75;;
52031;SDS011;38044;45.148;39.604;2024-03-07T04:56:49;19.23;;;9.27;;
52031;SDS011;38044;45.148;39.604;2024-03-07T04:59:16;11.35;;;7.47;;
52031;SDS011;38044;45.148;39.604;2024-03-07T05:01:43;16.15;;;9.40;;
52031;SDS011;38044;45.148;39.604;2024-03-07T05:04:11;15.43;;;9.20;;
52031;SDS011;38044;45.148;39.604;2024-03-07T05:06:38;13.88;;;9.43;;
52031;SDS011;38044;45.148;39.604;2024-03-07T05:09:05;19.50;;;8.77;;
52031;SDS011;38044;45.148;39.604;2024-03-07T05:11:35;14.82;;;9.27;;
52031;SDS011;38044;45.148;39.604;2024-03-07T05:14:02;14.68;;;9.13;;
52031;SDS011;38044;45.148;39.604;2024-03-07T05:16:29;13.05;;;8.93;;
52031;SDS011;38044;45.148;39.604;2024-03-07T05:18:57;14.05;;;8.68;;
52031;SDS011;38044;45.148;39.604;2024-03-07T05:21:26;14.00;;;8.60;;
52031;SDS011;38044;45.148;39.604;2024-03-07T05:23:58;14.82;;;8.80;;
52031;SDS011;38044;45.148;39.604;2024-03-07T05:26:25;25.33;;;12.82;;
52031;SDS011;38044;45.148;39.604;2024-03-07T05:28:54;27.38;;;17.58;;
52031;SDS011;38044;45.148;39.604;2024-03-07T05:31:20;13.35;;;9.10;;
52031;SDS011;38044;45.148;39.604;2024-03-07T05:33:47;18.67;;;9.27;;
52031;SDS011;38044;45.148;39.604;2024-03-07T05:36:13;17.13;;;9.57;;
52031;SDS011;38044;45.148;39.604;2024-03-07T05:38:43;15.95;;;8.90;;
52031;SDS011;38044;45.148;39.604;2024-03-07T05:41:10;14.45;;;9.45;;
52031;SDS011;38044;45.148;39.604;2024-03-07T05:43:39;12.15;;;8.85;;
52031;SDS011;38044;45.148;39.604;2024-03-07T05:46:05;23.65;;;14.35;;
52031;SDS011;38044;45.148;39.604;2024-03-07T05:48:35;14.00;;;9.20;;
52031;SDS011;38044;45.148;39.604;2024-03-07T05:51:01;16.25;;;10.02;;
52031;SDS011;38044;45.148;39.604;2024-03-07T05:53:28;15.85;;;9.07;;
52031;SDS011;38044;45.148;39.604;2024-03-07T05:55:54;16.30;;;9.65;;
52031;SDS011;38044;45.148;39.604;2024-03-07T05:58:20;13.75;;;8.52;;
52031;SDS011;38044;45.148;39.604;2024-03-07T06:00:46;16.80;;;9.63;;
52031;SDS011;38044;45.148;39.604;2024-03-07T06:03:17;22.40;;;12.52;;
52031;SDS011;38044;45.148;39.604;2024-03-07T06:05:47;17.00;;;9.77;;
52031;SDS011;38044;45.148;39.604;2024-03-07T06:08:16;21.00;;;10.52;;
52031;SDS011;38044;45.148;39.604;2024-03-07T06:10:43;16.85;;;11.52;;
52031;SDS011;38044;45.148;39.604;2024-03-07T06:13:13;16.88;;;10.75;;
52031;SDS011;38044;45.148;39.604;2024-03-07T06:15:43;17.67;;;10.68;;
52031;SDS011;38044;45.148;39.604;2024-03-07T06:18:10;17.05;;;11.93;;
52031;SDS011;38044;45.148;39.604;2024-03-07T06:20:36;19.90;;;10.68;;
52031;SDS011;38044;45.148;39.604;2024-03-07T06:23:02;14.55;;;9.43;;
52031;SDS011;38044;45.148;39.604;2024-03-07T06:25:31;16.13;;;9.57;;
52031;SDS011;38044;45.148;39.604;2024-03-07T06:28:16;17.05;;;9.57;;
52031;SDS011;38044;45.148;39.604;2024-03-07T06:30:46;12.27;;;8.70;;
52031;SDS011;38044;45.148;39.604;2024-03-07T06:33:13;16.13;;;9.00;;
52031;SDS011;38044;45.148;39.604;2024-03-07T06:35:39;21.60;;;8.45;;
52031;SDS011;38044;45.148;39.604;2024-03-07T06:38:06;16.73;;;8.38;;
52031;SDS011;38044;45.148;39.604;2024-03-07T06:40:34;16.77;;;8.73;;
52031;SDS011;38044;45.148;39.604;2024-03-07T06:43:00;13.90;;;8.40;;
52031;SDS011;38044;45.148;39.604;2024-03-07T06:45:29;14.18;;;7.65;;
52031;SDS011;38044;45.148;39.604;2024-03-07T06:47:55;14.35;;;7.85;;
52031;SDS011;38044;45.148;39.604;2024-03-07T06:50:21;14.85;;;8.40;;
52031;SDS011;38044;45.148;39.604;2024-03-07T06:52:48;15.52;;;7.80;;
52031;SDS011;38044;45.148;39.604;2024-03-07T06:55:15;14.07;;;7.95;;
52031;SDS011;38044;45.148;39.604;2024-03-07T06:57:42;13.55;;;7.97;;
52031;SDS011;38044;45.148;39.604;2024-03-07T07:00:09;14.60;;;8.02;;
52031;SDS011;38044;45.148;39.604;2024-03-07T07:02:42;12.60;;;7.82;;
52031;SDS011;38044;45.148;39.604;2024-03-07T07:05:08;14.82;;;7.68;;
52031;SDS011;38044;45.148;39.604;2024-03-07T07:07:43;11.02;;;7.60;;
52031;SDS011;38044;45.148;39.604;2024-03-07T07:10:10;12.88;;;7.28;;
52031;SDS011;38044;45.148;39.604;2024-03-07T07:12:47;11.70;;;7.60;;
52031;SDS011;38044;45.148;39.604;2024-03-07T07:15:14;10.88;;;7.28;;
52031;SDS011;38044;45.148;39.604;2024-03-07T07:17:42;14.43;;;9.27;;
52031;SDS011;38044;45.148;39.604;2024-03-07T07:20:12;11.63;;;7.30;;
52031;SDS011;38044;45.148;39.604;2024-03-07T07:22:40;13.20;;;8.00;;
52031;SDS011;38044;45.148;39.604;2024-03-07T07:25:07;11.00;;;6.90;;
52031;SDS011;38044;45.148;39.604;2024-03-07T07:30:13;13.98;;;7.72;;
52031;SDS011;38044;45.148;39.604;2024-03-07T07:32:40;12.50;;;8.02;;
52031;SDS011;38044;45.148;39.604;2024-03-07T07:35:08;15.02;;;8.15;;
52031;SDS011;38044;45.148;39.604;2024-03-07T07:37:43;11.88;;;7.68;;
52031;SDS011;38044;45.148;39.604;2024-03-07T07:40:15;14.20;;;8.25;;
52031;SDS011;38044;45.148;39.604;2024-03-07T07:42:46;13.50;;;7.90;;
52031;SDS011;38044;45.148;39.604;2024-03-07T07:45:14;12.60;;;9.10;;
52031;SDS011;38044;45.148;39.604;2024-03-07T07:47:44;14.73;;;9.00;;
52031;SDS011;38044;45.148;39.604;2024-03-07T07:50:18;14.65;;;9.18;;
52031;SDS011;38044;45.148;39.604;2024-03-07T07:52:45;14.77;;;9.43;;
52031;SDS011;38044;45.148;39.604;2024-03-07T07:55:17;11.85;;;7.82;;
52031;SDS011;38044;45.148;39.604;2024-03-07T07:58:01;15.10;;;8.43;;
52031;SDS011;38044;45.148;39.604;2024-03-07T08:00:29;16.42;;;9.10;;
52031;SDS011;38044;45.148;39.604;2024-03-07T08:03:03;14.75;;;8.57;;
52031;SDS011;38044;45.148;39.604;2024-03-07T08:05:32;13.27;;;8.13;;
52031;SDS011;38044;45.148;39.604;2024-03-07T08:08:00;12.88;;;8.13;;
52031;SDS011;38044;45.148;39.604;2024-03-07T08:10:31;12.65;;;8.70;;
52031;SDS011;38044;45.148;39.604;2024-03-07T08:12:58;16.20;;;8.88;;
52031;SDS011;38044;45.148;39.604;2024-03-07T08:15:26;14.40;;;8.68;;
52031;SDS011;38044;45.148;39.604;2024-03-07T08:17:54;16.00;;;9.65;;
52031;SDS011;38044;45.148;39.604;2024-03-07T08:20:23;15.70;;;9.10;;
52031;SDS011;38044;45.148;39.604;2024-03-07T08:22:51;18.33;;;9.27;;
52031;SDS011;38044;45.148;39.604;2024-03-07T08:25:22;10.93;;;7.93;;
52031;SDS011;38044;45.148;39.604;2024-03-07T08:27:50;14.93;;;9.55;;
52031;SDS011;38044;45.148;39.604;2024-03-07T08:30:17;12.35;;;8.98;;
52031;SDS011;38044;45.148;39.604;2024-03-07T08:32:44;11.02;;;8.65;;
52031;SDS011;38044;45.148;39.604;2024-03-07T08:35:11;12.90;;;8.90;;
52031;SDS011;38044;45.148;39.604;2024-03-07T08:37:41;14.38;;;8.57;;
52031;SDS011;38044;45.148;39.604;2024-03-07T08:40:09;12.77;;;9.30;;
52031;SDS011;38044;45.148;39.604;2024-03-07T08:42:37;16.35;;;10.05;;
52031;SDS011;38044;45.148;39.604;2024-03-07T08:45:03;13.45;;;9.50;;
52031;SDS011;38044;45.148;39.604;2024-03-07T08:47:33;14.40;;;8.88;;
52031;SDS011;38044;45.148;39.604;2024-03-07T08:50:03;14.60;;;9.57;;
52031;SDS011;38044;45.148;39.604;2024-03-07T08:52:38;17.77;;;9.27;;
52031;SDS011;38044;45.148;39.604;2024-03-07T08:55:09;23.38;;;15.02;;
52031;SDS011;38044;45.148;39.604;2024-03-07T08:57:39;14.98;;;10.48;;
52031;SDS011;38044;45.148;39.604;2024-03-07T09:00:06;14.45;;;9.65;;
52031;SDS011;38044;45.148;39.604;2024-03-07T09:02:37;14.35;;;10.40;;
52031;SDS011;38044;45.148;39.604;2024-03-07T09:05:04;17.45;;;11.48;;
52031;SDS011;38044;45.148;39.604;2024-03-07T09:07:31;10.85;;;8.50;;
52031;SDS011;38044;45.148;39.604;2024-03-07T09:09:58;15.13;;;9.95;;
52031;SDS011;38044;45.148;39.604;2024-03-07T09:12:24;12.38;;;8.90;;
52031;SDS011;38044;45.148;39.604;2024-03-07T09:14:53;13.70;;;8.98;;
52031;SDS011;38044;45.148;39.604;2024-03-07T09:17:19;12.63;;;8.98;;
52031;SDS011;38044;45.148;39.604;2024-03-07T09:19:46;14.13;;;10.00;;
52031;SDS011;38044;45.148;39.604;2024-03-07T09:22:11;14.45;;;9.45;;
52031;SDS011;38044;45.148;39.604;2024-03-07T09:24:37;12.38;;;8.90;;
52031;SDS011;38044;45.148;39.604;2024-03-07T09:27:03;16.77;;;9.93;;
52031;SDS011;38044;45.148;39.604;2024-03-07T09:29:30;13.88;;;9.60;;
52031;SDS011;38044;45.148;39.604;2024-03-07T09:31:56;16.13;;;10.35;;
52031;SDS011;38044;45.148;39.604;2024-03-07T09:34:23;13.77;;;9.70;;
52031;SDS011;38044;45.148;39.604;2024-03-07T09:36:50;13.77;;;9.32;;
52031;SDS011;38044;45.148;39.604;2024-03-07T09:39:19;14.43;;;10.02;;
52031;SDS011;38044;45.148;39.604;2024-03-07T09:41:45;14.45;;;10.40;;
52031;SDS011;38044;45.148;39.604;2024-03-07T09:44:12;15.75;;;10.25;;
52031;SDS011;38044;45.148;39.604;2024-03-07T09:46:47;12.73;;;10.20;;
52031;SDS011;38044;45.148;39.604;2024-03-07T09:49:18;15.60;;;10.55;;
52031;SDS011;38044;45.148;39.604;2024-03-07T09:51:46;18.67;;;10.85;;
52031;SDS011;38044;45.148;39.604;2024-03-07T09:54:12;70.65;;;34.70;;
52031;SDS011;38044;45.148;39.604;2024-03-07T09:56:40;90.35;;;45.40;;
52031;SDS011;38044;45.148;39.604;2024-03-07T09:59:08;24.08;;;14.30;;
52031;SDS011;38044;45.148;39.604;2024-03-07T10:01:40;16.63;;;12.30;;
52031;SDS011;38044;45.148;39.604;2024-03-07T10:04:12;14.93;;;12.30;;
52031;SDS011;38044;45.148;39.604;2024-03-07T10:06:42;14.57;;;11.18;;
52031;SDS011;38044;45.148;39.604;2024-03-07T10:09:11;17.27;;;10.60;;
52031;SDS011;38044;45.148;39.604;2024-03-07T10:11:39;15.40;;;10.90;;
52031;SDS011;38044;45.148;39.604;2024-03-07T10:14:06;17.23;;;12.02;;
52031;SDS011;38044;45.148;39.604;2024-03-07T10:16:33;15.55;;;10.80;;
52031;SDS011;38044;45.148;39.604;2024-03-07T10:18:59;13.60;;;11.50;;
52031;SDS011;38044;45.148;39.604;2024-03-07T10:21:26;16.52;;;11.23;;
52031;SDS011;38044;45.148;39.604;2024-03-07T10:24:07;15.23;;;10.65;;
52031;SDS011;38044;45.148;39.604;2024-03-07T10:26:35;16.83;;;11.75;;
52031;SDS011;38044;45.148;39.604;2024-03-07T10:29:03;14.20;;;11.23;;
52031;SDS011;38044;45.148;39.604;2024-03-07T10:31:31;15.57;;;12.35;;
52031;SDS011;38044;45.148;39.604;2024-03-07T10:34:01;16.80;;;11.23;;
52031;SDS011;38044;45.148;39.604;2024-03-07T10:36:30;19.48;;;11.75;;
52031;SDS011;38044;45.148;39.604;2024-03-07T10:38:58;18.45;;;12.55;;
52031;SDS011;38044;45.148;39.604;2024-03-07T10:41:39;14.43;;;11.43;;
52031;SDS011;38044;45.148;39.604;2024-03-07T10:44:15;15.15;;;11.00;;
52031;SDS011;38044;45.148;39.604;2024-03-07T10:46:51;16.13;;;11.15;;
52031;SDS011;38044;45.148;39.604;2024-03-07T10:49:19;14.90;;;11.50;;
52031;SDS011;38044;45.148;39.604;2024-03-07T10:52:09;15.85;;;11.95;;
52031;SDS011;38044;45.148;39.604;2024-03-07T10:54:54;14.38;;;11.05;;
52031;SDS011;38044;45.148;39.604;2024-03-07T10:57:57;19.25;;;12.13;;
52031;SDS011;38044;45.148;39.604;2024-03-07T11:00:27;16.10;;;12.20;;
52031;SDS011;38044;45.148;39.604;2024-03-07T11:03:01;15.65;;;11.55;;
52031;SDS011;38044;45.148;39.604;2024-03-07T11:05:32;15.85;;;11.05;;
52031;SDS011;38044;45.148;39.604;2024-03-07T11:08:02;19.88;;;12.23;;
52031;SDS011;38044;45.148;39.604;2024-03-07T11:10:36;17.75;;;12.13;;
52031;SDS011;38044;45.148;39.604;2024-03-07T11:13:07;14.82;;;11.40;;
52031;SDS011;38044;45.148;39.604;2024-03-07T11:15:35;18.05;;;11.85;;
52031;SDS011;38044;45.148;39.604;2024-03-07T11:18:03;16.85;;;11.77;;
52031;SDS011;38044;45.148;39.604;2024-03-07T11:20:36;21.58;;;11.63;;
52031;SDS011;38044;45.148;39.604;2024-03-07T11:26:14;18.80;;;12.75;;
52031;SDS011;38044;45.148;39.604;2024-03-07T11:28:42;20.33;;;13.07;;
52031;SDS011;38044;45.148;39.604;2024-03-07T11:36:43;18.33;;;12.68;;
52031;SDS011;38044;45.148;39.604;2024-03-07T11:42:29;27.10;;;14.32;;
52031;SDS011;38044;45.148;39.604;2024-03-07T11:44:58;20.80;;;14.88;;
52031;SDS011;38044;45.148;39.604;2024-03-07T11:47:34;21.60;;;13.85;;
52031;SDS011;38044;45.148;39.604;2024-03-07T11:50:03;21.20;;;14.63;;
52031;SDS011;38044;45.148;39.604;2024-03-07T11:52:33;19.27;;;12.98;;
52031;SDS011;38044;45.148;39.604;2024-03-07T11:55:02;20.90;;;13.10;;
52031;SDS011;38044;45.148;39.604;2024-03-07T11:57:31;22.15;;;13.35;;
52031;SDS011;38044;45.148;39.604;2024-03-07T12:00:00;18.77;;;13.68;;
52031;SDS011;38044;45.148;39.604;2024-03-07T12:04:59;19.58;;;14.70;;
52031;SDS011;38044;45.148;39.604;2024-03-07T12:07:28;20.90;;;13.90;;
52031;SDS011;38044;45.148;39.604;2024-03-07T12:09:54;18.23;;;14.57;;
52031;SDS011;38044;45.148;39.604;2024-03-07T12:12:21;23.73;;;15.55;;
52031;SDS011;38044;45.148;39.604;2024-03-07T12:14:47;19.40;;;15.18;;
52031;SDS011;38044;45.148;39.604;2024-03-07T12:17:16;21.58;;;15.48;;
52031;SDS011;38044;45.148;39.604;2024-03-07T12:19:43;21.90;;;15.15;;
52031;SDS011;38044;45.148;39.604;2024-03-07T12:22:09;24.80;;;14.95;;
52031;SDS011;38044;45.148;39.604;2024-03-07T12:24:40;20.25;;;15.23;;
52031;SDS011;38044;45.148;39.604;2024-03-07T12:27:12;23.63;;;15.75;;
52031;SDS011;38044;45.148;39.604;2024-03-07T12:29:41;22.83;;;16.13;;
52031;SDS011;38044;45.148;39.604;2024-03-07T12:32:08;19.45;;;15.27;;
52031;SDS011;38044;45.148;39.604;2024-03-07T12:34:40;22.42;;;14.90;;
52031;SDS011;38044;45.148;39.604;2024-03-07T12:37:11;19.88;;;15.27;;
52031;SDS011;38044;45.148;39.604;2024-03-07T12:39:41;22.13;;;16.67;;
52031;SDS011;38044;45.148;39.604;2024-03-07T12:42:17;24.80;;;16.52;;
52031;SDS011;38044;45.148;39.604;2024-03-07T12:44:45;20.80;;;15.35;;
52031;SDS011;38044;45.148;39.604;2024-03-07T12:47:14;21.63;;;15.85;;
52031;SDS011;38044;45.148;39.604;2024-03-07T12:49:42;20.23;;;14.70;;
52031;SDS011;38044;45.148;39.604;2024-03-07T12:52:08;22.20;;;16.10;;
52031;SDS011;38044;45.148;39.604;2024-03-07T12:54:37;23.58;;;16.33;;
52031;SDS011;38044;45.148;39.604;2024-03-07T12:59:38;24.63;;;17.20;;
52031;SDS011;38044;45.148;39.604;2024-03-07T13:02:07;26.92;;;18.05;;
52031;SDS011;38044;45.148;39.604;2024-03-07T13:04:34;24.38;;;16.98;;
52031;SDS011;38044;45.148;39.604;2024-03-07T13:07:06;22.92;;;16.73;;
52031;SDS011;38044;45.148;39.604;2024-03-07T13:09:32;25.10;;;17.17;;
52031;SDS011;38044;45.148;39.604;2024-03-07T13:11:59;25.95;;;16.90;;
52031;SDS011;38044;45.148;39.604;2024-03-07T13:14:32;24.17;;;17.67;;
52031;SDS011;38044;45.148;39.604;2024-03-07T13:17:01;23.95;;;17.85;;
52031;SDS011;38044;45.148;39.604;2024-03-07T13:19:28;22.08;;;16.83;;
52031;SDS011;38044;45.148;39.604;2024-03-07T13:21:55;25.50;;;18.00;;
52031;SDS011;38044;45.148;39.604;2024-03-07T13:24:22;25.02;;;17.85;;
52031;SDS011;38044;45.148;39.604;2024-03-07T13:26:48;23.00;;;17.60;;
52031;SDS011;38044;45.148;39.604;2024-03-07T13:29:15;22.13;;;16.70;;
52031;SDS011;38044;45.148;39.604;2024-03-07T13:31:44;25.08;;;17.58;;
52031;SDS011;38044;45.148;39.604;2024-03-07T13:34:11;25.92;;;19.55;;
52031;SDS011;38044;45.148;39.604;2024-03-07T13:36:43;24.88;;;16.63;;
52031;SDS011;38044;45.148;39.604;2024-03-07T13:39:10;25.38;;;18.45;;
52031;SDS011;38044;45.148;39.604;2024-03-07T13:41:40;26.27;;;19.27;;
52031;SDS011;38044;45.148;39.604;2024-03-07T13:44:07;23.17;;;18.60;;
52031;SDS011;38044;45.148;39.604;2024-03-07T13:46:33;27.10;;;17.77;;
52031;SDS011;38044;45.148;39.604;2024-03-07T13:49:00;25.73;;;18.27;;
52031;SDS011;38044;45.148;39.604;2024-03-07T13:51:37;22.67;;;17.60;;
52031;SDS011;38044;45.148;39.604;2024-03-07T13:54:16;24.02;;;16.75;;
52031;SDS011;38044;45.148;39.604;2024-03-07T14:05:20;23.92;;;17.70;;
52031;SDS011;38044;45.148;39.604;2024-03-07T14:08:55;22.33;;;18.17;;
52031;SDS011;38044;45.148;39.604;2024-03-07T14:11:28;25.05;;;18.08;;
52031;SDS011;38044;45.148;39.604;2024-03-07T14:22:54;24.25;;;17.92;;
52031;SDS011;38044;45.148;39.604;2024-03-07T14:25:44;25.25;;;18.25;;
52031;SDS011;38044;45.148;39.604;2024-03-07T14:31:00;22.23;;;17.42;;
52031;SDS011;38044;45.148;39.604;2024-03-07T14:36:47;22.27;;;17.20;;
52031;SDS011;38044;45.148;39.604;2024-03-07T14:39:22;25.23;;;18.17;;
52031;SDS011;38044;45.148;39.604;2024-03-07T14:44:24;27.27;;;18.27;;
52031;SDS011;38044;45.148;39.604;2024-03-07T14:46:54;23.52;;;17.60;;
52031;SDS011;38044;45.148;39.604;2024-03-07T14:49:31;25.02;;;18.35;;
52031;SDS011;38044;45.148;39.604;2024-03-07T14:51:58;22.77;;;18.40;;
52031;SDS011;38044;45.148;39.604;2024-03-07T14:54:24;23.15;;;16.10;;
52031;SDS011;38044;45.148;39.604;2024-03-07T14:56:51;26.60;;;18.15;;
52031;SDS011;38044;45.148;39.604;2024-03-07T14:59:17;23.90;;;16.38;;
52031;SDS011;38044;45.148;39.604;2024-03-07T15:01:44;26.90;;;17.33;;
52031;SDS011;38044;45.148;39.604;2024-03-07T15:04:10;21.05;;;15.85;;
52031;SDS011;38044;45.148;39.604;2024-03-07T15:06:38;28.92;;;20.65;;
52031;SDS011;38044;45.148;39.604;2024-03-07T15:09:05;24.27;;;17.15;;
52031;SDS011;38044;45.148;39.604;2024-03-07T15:11:37;20.33;;;15.60;;